createdAt,value
2022-12-04T00:00:41.862Z,96620.03
2022-12-04T00:01:43.811Z,96620.22
2022-12-04T00:02:45.751Z,96617.63
2022-12-04T00:03:48.131Z,96617.63
2022-12-04T00:04:50.159Z,96624.53
2022-12-04T00:05:52.333Z,96630.34
2022-12-04T00:06:58.682Z,96613.94
2022-12-04T00:08:01.269Z,96620.69
2022-12-04T00:09:03.825Z,96615.53
2022-12-04T00:10:06.121Z,96615.06
2022-12-04T00:11:08.961Z,96619.38
2022-12-04T00:12:10.913Z,96620.22
2022-12-04T00:13:12.747Z,96616.81
2022-12-04T00:14:14.607Z,96623.72
2022-12-04T00:15:25.241Z,96627.28
2022-12-04T00:16:29.749Z,96616.34
2022-12-04T00:17:31.742Z,96627.44
2022-12-04T00:18:34.153Z,96622.44
2022-12-04T00:19:35.981Z,96624.06
2022-12-04T00:20:41.866Z,96623.88
2022-12-04T00:21:45.634Z,96626.47
2022-12-04T00:22:47.711Z,96620.38
2022-12-04T00:23:50.359Z,96631.31
2022-12-04T00:24:52.186Z,96626.31
2022-12-04T00:25:59.662Z,96642.56
2022-12-04T00:27:01.578Z,96637.25
2022-12-04T00:28:05.339Z,96632.91
2022-12-04T00:29:07.241Z,96631.97
2022-12-04T00:30:09.286Z,96637.91
2022-12-04T00:31:13.178Z,96637.09
2022-12-04T00:32:15.039Z,96628.25
2022-12-04T00:33:16.902Z,96633.53
2022-12-04T00:34:18.792Z,96632.75
2022-12-04T00:35:20.649Z,96626.94
2022-12-04T00:36:23.957Z,96631.78
2022-12-04T00:37:25.997Z,96619.19
2022-12-04T00:38:28.443Z,96627.72
2022-12-04T00:39:31.338Z,96617.91
2022-12-04T00:40:33.194Z,96629.03
2022-12-04T00:41:35.084Z,96623.53
2022-12-04T00:42:37.135Z,96626.09
2022-12-04T00:43:39.107Z,96630.25
2022-12-04T00:44:41.016Z,96620.59
2022-12-04T00:45:42.953Z,96620.59
2022-12-04T00:46:44.808Z,96611.09
2022-12-04T00:47:46.660Z,96620.31
2022-12-04T00:48:48.648Z,96614.81
2022-12-04T00:49:51.280Z,96618.88
2022-12-04T00:50:54.430Z,96617.91
2022-12-04T00:51:57.366Z,96619.34
2022-12-04T00:52:59.253Z,96618.25
2022-12-04T00:54:01.166Z,96617.13
2022-12-04T00:55:03.062Z,96622.13
2022-12-04T00:56:06.137Z,96622.91
2022-12-04T00:57:07.962Z,96620.00
2022-12-04T00:58:10.777Z,96622.59
2022-12-04T00:59:13.975Z,96626.63
2022-12-04T01:00:16.389Z,96628.38
2022-12-04T01:01:19.478Z,96633.53
2022-12-04T01:02:21.370Z,96629.22
2022-12-04T01:03:23.341Z,96622.59
2022-12-04T01:04:25.211Z,96621.00
2022-12-04T01:05:27.771Z,96616.31
2022-12-04T01:06:30.963Z,96623.41
2022-12-04T01:07:32.864Z,96617.44
2022-12-04T01:08:34.874Z,96613.56
2022-12-04T01:09:36.690Z,96610.34
2022-12-04T01:10:39.462Z,96611.47
2022-12-04T01:11:41.430Z,96621.78
2022-12-04T01:12:43.303Z,96609.88
2022-12-04T01:13:45.263Z,96616.63
2022-12-04T01:14:47.143Z,96607.94
2022-12-04T01:15:49.588Z,96614.19
2022-12-04T01:16:51.576Z,96612.44
2022-12-04T01:17:53.506Z,96613.25
2022-12-04T01:18:55.440Z,96617.44
2022-12-04T01:19:57.594Z,96617.75
2022-12-04T01:20:59.543Z,96615.81
2022-12-04T01:22:02.022Z,96620.19
2022-12-04T01:23:03.943Z,96623.56
2022-12-04T01:24:05.926Z,96621.94
2022-12-04T01:25:08.353Z,96618.69
2022-12-04T01:26:10.741Z,96619.97
2022-12-04T01:27:12.672Z,96623.69
2022-12-04T01:28:14.445Z,96623.53
2022-12-04T01:29:16.302Z,96625.78
2022-12-04T01:30:18.113Z,96623.84
2022-12-04T01:31:20.595Z,96635.91
2022-12-04T01:32:22.583Z,96623.53
2022-12-04T01:33:24.490Z,96627.84
2022-12-04T01:34:26.635Z,96629.47
2022-12-04T01:35:28.488Z,96626.09
2022-12-04T01:36:30.779Z,96628.81
2022-12-04T01:37:32.747Z,96635.75
2022-12-04T01:38:35.684Z,96631.41
2022-12-04T01:39:37.629Z,96622.88
2022-12-04T01:40:43.815Z,96624.31
2022-12-04T01:41:45.705Z,96624.19
2022-12-04T01:42:47.585Z,96619.97
2022-12-04T01:44:07.965Z,96625.47
2022-12-04T01:45:34.391Z,96626.72
2022-12-04T01:46:36.324Z,96622.53
2022-12-04T01:47:38.202Z,96617.09
2022-12-04T01:48:40.248Z,96620.47
2022-12-04T01:49:45.432Z,96620.31
2022-12-04T01:50:48.813Z,96617.56
2022-12-04T01:51:53.197Z,96619.97
2022-12-04T01:52:55.582Z,96618.38
2022-12-04T01:54:00.973Z,96620.97
2022-12-04T01:55:02.894Z,96619.97
2022-12-04T01:56:05.301Z,96626.09
2022-12-04T01:57:16.990Z,96620.97
2022-12-04T01:58:23.172Z,96617.41
2022-12-04T01:59:30.524Z,96624.19
2022-12-04T02:00:32.544Z,96623.69
2022-12-04T02:01:37.215Z,96620.31
2022-12-04T02:02:40.688Z,96620.31
2022-12-04T02:03:42.946Z,96615.31
2022-12-04T02:04:45.417Z,96620.47
2022-12-04T02:05:47.329Z,96619.47
2022-12-04T02:06:49.190Z,96622.22
2022-12-04T02:07:53.613Z,96619.81
2022-12-04T02:08:55.613Z,96622.22
2022-12-04T02:10:03.968Z,96620.47
2022-12-04T02:11:11.900Z,96621.25
2022-12-04T02:12:21.008Z,96616.09
2022-12-04T02:13:36.831Z,96615.16
2022-12-04T02:14:38.662Z,96621.91
2022-12-04T02:15:43.620Z,96618.38
2022-12-04T02:16:48.584Z,96614.19
2022-12-04T02:17:56.254Z,96612.59
2022-12-04T02:18:58.081Z,96610.31
2022-12-04T02:20:12.128Z,96614.66
2022-12-04T02:21:37.520Z,96618.19
2022-12-04T02:23:05.781Z,96624.16
2022-12-04T02:24:25.654Z,96620.75
2022-12-04T02:25:41.067Z,96618.50
2022-12-04T02:26:51.417Z,96619.31
2022-12-04T02:28:09.847Z,96623.94
2022-12-04T02:29:27.846Z,96613.47
2022-12-04T02:30:31.050Z,96623.78
2022-12-04T02:31:38.523Z,96621.34
2022-12-04T02:32:40.422Z,96634.06
2022-12-04T02:33:58.592Z,96617.03
2022-12-04T02:35:06.754Z,96628.78
2022-12-04T02:36:14.448Z,96622.84
2022-12-04T02:37:22.283Z,96612.22
2022-12-04T02:38:29.396Z,96619.13
2022-12-04T02:39:34.058Z,96615.09
2022-12-04T02:40:46.523Z,96614.28
2022-12-04T02:41:54.326Z,96608.16
2022-12-04T02:43:09.017Z,96606.53
2022-12-04T02:44:13.618Z,96614.91
2022-12-04T02:45:20.490Z,96618.31
2022-12-04T02:46:30.535Z,96611.84
2022-12-04T02:47:33.143Z,96611.84
2022-12-04T02:48:40.519Z,96612.50
2022-12-04T02:49:46.409Z,96601.88
2022-12-04T02:50:51.408Z,96612.97
2022-12-04T02:51:55.519Z,96605.25
2022-12-04T02:53:09.818Z,96614.47
2022-12-04T02:54:25.506Z,96608.34
2022-12-04T02:55:37.137Z,96600.75
2022-12-04T02:56:42.998Z,96607.53
2022-12-04T02:57:49.015Z,96610.25
2022-12-04T02:58:53.256Z,96608.66
2022-12-04T02:59:56.602Z,96601.75
2022-12-04T03:01:01.389Z,96609.31
2022-12-04T03:02:09.145Z,96607.53
2022-12-04T03:03:17.360Z,96607.53
2022-12-04T03:04:26.803Z,96606.09
2022-12-04T03:05:40.834Z,96603.66
2022-12-04T03:06:44.543Z,96603.53
2022-12-04T03:08:02.628Z,96607.69
2022-12-04T03:09:25.406Z,96612.19
2022-12-04T03:10:32.884Z,96603.81
2022-12-04T03:11:36.621Z,96600.28
2022-12-04T03:12:44.720Z,96606.88
2022-12-04T03:13:50.127Z,96600.94
2022-12-04T03:14:58.518Z,96605.91
2022-12-04T03:16:06.704Z,96604.31
2022-12-04T03:17:28.786Z,96605.44
2022-12-04T03:18:36.842Z,96601.09
2022-12-04T03:19:43.842Z,96596.75
2022-12-04T03:20:47.882Z,96592.41
2022-12-04T03:21:54.616Z,96589.69
2022-12-04T03:23:00.039Z,96592.09
2022-12-04T03:24:10.790Z,96584.22
2022-12-04T03:25:14.193Z,96585.69
2022-12-04T03:26:24.576Z,96588.09
2022-12-04T03:27:34.572Z,96591.47
2022-12-04T03:28:48.367Z,96591.47
2022-12-04T03:30:01.941Z,96586.47
2022-12-04T03:31:06.760Z,96592.59
2022-12-04T03:32:15.523Z,96597.09
2022-12-04T03:33:20.714Z,96591.59
2022-12-04T03:34:33.779Z,96583.19
2022-12-04T03:35:50.568Z,96584.81
2022-12-04T03:37:04.010Z,96591.28
2022-12-04T03:38:12.005Z,96589.19
2022-12-04T03:39:13.824Z,96593.22
2022-12-04T03:40:34.415Z,96591.09
2022-12-04T03:42:08.361Z,96587.06
2022-12-04T03:43:23.339Z,96582.56
2022-12-04T03:44:33.217Z,96585.94
2022-12-04T03:45:41.022Z,96584.22
2022-12-04T03:47:06.074Z,96587.56
2022-12-04T03:48:28.156Z,96584.34
2022-12-04T03:49:35.674Z,96580.00
2022-12-04T03:50:37.476Z,96582.44
2022-12-04T03:51:41.876Z,96585.94
2022-12-04T03:52:59.054Z,96577.41
2022-12-04T03:54:07.576Z,96578.34
2022-12-04T03:55:13.874Z,96569.38
2022-12-04T03:56:19.267Z,96575.50
2022-12-04T03:57:25.344Z,96576.75
2022-12-04T03:58:29.815Z,96571.91
2022-12-04T03:59:38.601Z,96573.53
2022-12-04T04:00:42.403Z,96565.50
2022-12-04T04:01:47.026Z,96573.06
2022-12-04T04:03:20.873Z,96570.50
2022-12-04T04:04:27.417Z,96571.00
2022-12-04T04:05:30.787Z,96575.19
2022-12-04T04:06:35.044Z,96572.25
2022-12-04T04:08:24.650Z,96569.31
2022-12-04T04:09:29.778Z,96577.38
2022-12-04T04:10:31.716Z,96577.38
2022-12-04T04:11:36.316Z,96584.31
2022-12-04T04:12:41.645Z,96587.63
2022-12-04T04:14:05.351Z,96585.72
2022-12-04T04:15:28.756Z,96584.59
2022-12-04T04:16:52.402Z,96592.66
2022-12-04T04:18:13.052Z,96588.16
2022-12-04T04:19:35.197Z,96583.81
2022-12-04T04:21:09.455Z,96586.91
2022-12-04T04:22:30.630Z,96586.91
2022-12-04T04:23:53.987Z,96592.84
2022-12-04T04:24:59.852Z,96583.19
2022-12-04T04:26:03.225Z,96568.41
2022-12-04T04:27:06.639Z,96574.38
2022-12-04T04:28:28.733Z,96580.63
2022-12-04T04:29:30.688Z,96571.47
2022-12-04T04:30:33.171Z,96575.78
2022-12-04T04:31:35.085Z,96569.69
2022-12-04T04:33:03.167Z,96571.94
2022-12-04T04:34:09.366Z,96567.28
2022-12-04T04:35:17.916Z,96567.78
2022-12-04T04:36:39.922Z,96579.22
2022-12-04T04:37:44.609Z,96565.69
2022-12-04T04:38:50.438Z,96580.97
2022-12-04T04:39:57.882Z,96572.88
2022-12-04T04:41:06.142Z,96574.81
2022-12-04T04:42:21.678Z,96571.25
2022-12-04T04:43:29.782Z,96576.09
2022-12-04T04:44:54.421Z,96572.41
2022-12-04T04:45:56.388Z,96567.59
2022-12-04T04:47:00.725Z,96565.81
2022-12-04T04:48:21.067Z,96565.66
2022-12-04T04:49:25.003Z,96557.94
2022-12-04T04:50:27.310Z,96565.50
2022-12-04T04:51:30.806Z,96561.66
2022-12-04T04:52:33.807Z,96566.50
2022-12-04T04:53:39.393Z,96566.50
2022-12-04T04:54:41.795Z,96559.75
2022-12-04T04:55:44.654Z,96562.78
2022-12-04T04:56:47.712Z,96562.66
2022-12-04T04:57:49.554Z,96570.22
2022-12-04T04:58:51.374Z,96567.78
2022-12-04T04:59:53.684Z,96567.63
2022-12-04T05:01:01.977Z,96558.28
2022-12-04T05:02:04.260Z,96573.56
2022-12-04T05:03:06.764Z,96577.09
2022-12-04T05:04:08.796Z,96574.19
2022-12-04T05:05:10.885Z,96580.94
2022-12-04T05:06:12.856Z,96576.63
2022-12-04T05:07:14.702Z,96568.06
2022-12-04T05:08:16.738Z,96567.91
2022-12-04T05:09:18.676Z,96567.75
2022-12-04T05:10:20.465Z,96567.63
2022-12-04T05:11:22.347Z,96563.28
2022-12-04T05:12:29.603Z,96560.56
2022-12-04T05:13:32.065Z,96556.69
2022-12-04T05:14:33.959Z,96561.31
2022-12-04T05:15:35.858Z,96559.69
2022-12-04T05:16:38.986Z,96560.34
2022-12-04T05:17:40.847Z,96561.19
2022-12-04T05:19:01.560Z,96556.81
2022-12-04T05:20:07.694Z,96563.41
2022-12-04T05:21:16.578Z,96563.28
2022-12-04T05:22:18.884Z,96568.13
2022-12-04T05:23:20.773Z,96568.91
2022-12-04T05:24:22.615Z,96570.69
2022-12-04T05:25:24.506Z,96568.13
2022-12-04T05:26:26.377Z,96568.41
2022-12-04T05:27:29.592Z,96568.41
2022-12-04T05:28:31.439Z,96564.06
2022-12-04T05:29:35.939Z,96578.41
2022-12-04T05:30:38.692Z,96573.75
2022-12-04T05:31:40.552Z,96568.13
2022-12-04T05:32:42.499Z,96576.00
2022-12-04T05:33:44.359Z,96576.78
2022-12-04T05:34:49.830Z,96562.00
2022-12-04T05:35:59.692Z,96571.34
2022-12-04T05:37:01.526Z,96568.59
2022-12-04T05:38:03.480Z,96568.59
2022-12-04T05:39:05.308Z,96565.22
2022-12-04T05:40:08.077Z,96559.06
2022-12-04T05:41:10.729Z,96563.56
2022-12-04T05:42:13.082Z,96560.34
2022-12-04T05:43:14.980Z,96555.06
2022-12-04T05:44:16.848Z,96554.91
2022-12-04T05:45:18.763Z,96543.81
2022-12-04T05:46:21.117Z,96554.91
2022-12-04T05:47:23.045Z,96556.69
2022-12-04T05:48:24.957Z,96556.69
2022-12-04T05:49:29.571Z,96551.97
2022-12-04T05:50:31.731Z,96548.47
2022-12-04T05:51:33.616Z,96557.63
2022-12-04T05:52:36.797Z,96560.06
2022-12-04T05:53:38.779Z,96556.97
2022-12-04T05:54:40.781Z,96565.50
2022-12-04T05:55:42.623Z,96566.13
2022-12-04T05:56:44.699Z,96563.22
2022-12-04T05:57:46.518Z,96570.94
2022-12-04T05:58:48.390Z,96574.81
2022-12-04T05:59:51.765Z,96566.59
2022-12-04T06:00:53.747Z,96570.94
2022-12-04T06:01:55.682Z,96562.88
2022-12-04T06:02:57.669Z,96568.69
2022-12-04T06:03:59.766Z,96566.94
2022-12-04T06:05:01.618Z,96571.25
2022-12-04T06:06:04.803Z,96573.34
2022-12-04T06:07:07.775Z,96569.16
2022-12-04T06:08:09.742Z,96569.66
2022-12-04T06:09:12.078Z,96577.69
2022-12-04T06:10:13.913Z,96573.69
2022-12-04T06:11:17.315Z,96565.31
2022-12-04T06:12:19.266Z,96569.34
2022-12-04T06:13:21.135Z,96570.16
2022-12-04T06:14:23.051Z,96562.44
2022-12-04T06:15:25.448Z,96563.25
2022-12-04T06:16:30.485Z,96565.66
2022-12-04T06:17:32.500Z,96569.84
2022-12-04T06:18:34.389Z,96582.19
2022-12-04T06:19:36.325Z,96566.94
2022-12-04T06:20:38.163Z,96570.97
2022-12-04T06:21:40.842Z,96576.91
2022-12-04T06:22:42.799Z,96572.56
2022-12-04T06:23:44.806Z,96573.38
2022-12-04T06:24:46.735Z,96571.63
2022-12-04T06:25:48.638Z,96576.91
2022-12-04T06:27:25.801Z,96577.69
2022-12-04T06:28:13.381Z,96577.06
2022-12-04T06:29:15.867Z,96575.13
2022-12-04T06:30:17.742Z,96579.47
2022-12-04T06:31:19.746Z,96576.91
2022-12-04T06:32:22.298Z,96575.31
2022-12-04T06:33:24.323Z,96578.22
2022-12-04T06:34:26.182Z,96578.06
2022-12-04T06:35:28.027Z,96573.72
2022-12-04T06:36:29.959Z,96572.25
2022-12-04T06:37:31.788Z,96574.84
2022-12-04T06:38:34.505Z,96574.19
2022-12-04T06:39:36.377Z,96574.19
2022-12-04T06:40:40.019Z,96572.41
2022-12-04T06:41:41.952Z,96576.44
2022-12-04T06:42:43.842Z,96569.53
2022-12-04T06:43:46.798Z,96563.56
2022-12-04T06:44:49.335Z,96571.13
2022-12-04T06:46:20.549Z,96575.34
2022-12-04T06:47:22.509Z,96575.19
2022-12-04T06:48:24.560Z,96566.50
2022-12-04T06:49:28.058Z,96569.88
2022-12-04T06:50:29.881Z,96582.72
2022-12-04T06:51:33.104Z,96578.41
2022-12-04T06:52:35.028Z,96567.28
2022-12-04T06:53:37.559Z,96567.94
2022-12-04T06:54:39.448Z,96585.31
2022-12-04T06:55:47.788Z,96575.50
2022-12-04T06:56:50.194Z,96566.47
2022-12-04T06:57:52.031Z,96561.19
2022-12-04T06:58:55.534Z,96573.56
2022-12-04T06:59:57.717Z,96567.28
2022-12-04T07:00:59.712Z,96574.88
2022-12-04T07:02:01.676Z,96574.88
2022-12-04T07:03:03.598Z,96574.88
2022-12-04T07:04:05.558Z,96577.13
2022-12-04T07:05:07.695Z,96574.25
2022-12-04T07:06:12.803Z,96575.88
2022-12-04T07:07:14.645Z,96574.56
2022-12-04T07:08:16.704Z,96568.91
2022-12-04T07:09:18.782Z,96579.84
2022-12-04T07:10:20.664Z,96582.09
2022-12-04T07:11:23.082Z,96576.00
2022-12-04T07:12:24.900Z,96574.25
2022-12-04T07:13:26.767Z,96577.47
2022-12-04T07:14:28.688Z,96571.19
2022-12-04T07:15:31.118Z,96576.03
2022-12-04T07:16:39.886Z,96578.59
2022-12-04T07:17:42.849Z,96576.81
2022-12-04T07:18:44.885Z,96573.75
2022-12-04T07:19:46.805Z,96574.25
2022-12-04T07:20:48.848Z,96574.25
2022-12-04T07:21:51.899Z,96572.31
2022-12-04T07:22:53.865Z,96573.09
2022-12-04T07:23:57.634Z,96575.38
2022-12-04T07:24:59.497Z,96570.38
2022-12-04T07:26:08.479Z,96569.84
2022-12-04T07:27:10.418Z,96566.28
2022-12-04T07:28:12.289Z,96564.19
2022-12-04T07:29:14.446Z,96560.53
2022-12-04T07:30:16.507Z,96566.00
2022-12-04T07:31:19.670Z,96574.84
2022-12-04T07:32:22.883Z,96574.84
2022-12-04T07:33:24.817Z,96579.34
2022-12-04T07:34:26.690Z,96567.41
2022-12-04T07:35:28.620Z,96566.31
2022-12-04T07:36:30.456Z,96564.22
2022-12-04T07:37:32.879Z,96575.34
2022-12-04T07:38:37.882Z,96571.63
2022-12-04T07:39:39.783Z,96567.78
2022-12-04T07:40:41.641Z,96569.09
2022-12-04T07:41:43.452Z,96572.31
2022-12-04T07:42:45.289Z,96571.50
2022-12-04T07:43:47.219Z,96567.78
2022-12-04T07:44:49.417Z,96572.28
2022-12-04T07:45:51.388Z,96580.66
2022-12-04T07:46:55.592Z,96582.75
2022-12-04T07:47:57.523Z,96586.94
2022-12-04T07:48:59.695Z,96583.72
2022-12-04T07:50:01.602Z,96585.94
2022-12-04T07:51:04.823Z,96583.22
2022-12-04T07:52:07.064Z,96582.28
2022-12-04T07:53:09.011Z,96586.94
2022-12-04T07:54:10.911Z,96584.88
2022-12-04T07:55:12.867Z,96583.75
2022-12-04T07:56:15.235Z,96586.19
2022-12-04T07:57:17.080Z,96580.69
2022-12-04T07:58:18.989Z,96577.81
2022-12-04T07:59:20.861Z,96573.16
2022-12-04T08:00:22.857Z,96579.78
2022-12-04T08:01:24.992Z,96578.94
2022-12-04T08:02:27.615Z,96579.91
2022-12-04T08:03:29.513Z,96568.66
2022-12-04T08:04:31.381Z,96571.72
2022-12-04T08:05:33.275Z,96576.06
2022-12-04T08:06:35.568Z,96578.16
2022-12-04T08:07:37.510Z,96578.16
2022-12-04T08:08:39.640Z,96575.06
2022-12-04T08:09:41.597Z,96577.50
2022-12-04T08:10:43.605Z,96579.78
2022-12-04T08:11:45.736Z,96583.16
2022-12-04T08:12:47.843Z,96578.00
2022-12-04T08:13:54.024Z,96570.78
2022-12-04T08:14:55.884Z,96579.00
2022-12-04T08:15:57.768Z,96574.78
2022-12-04T08:16:59.728Z,96565.28
2022-12-04T08:18:02.971Z,96566.91
2022-12-04T08:19:05.726Z,96568.69
2022-12-04T08:20:07.858Z,96574.94
2022-12-04T08:21:11.228Z,96573.00
2022-12-04T08:22:13.093Z,96569.34
2022-12-04T08:23:14.943Z,96570.78
2022-12-04T08:24:17.023Z,96575.59
2022-12-04T08:25:19.109Z,96572.06
2022-12-04T08:26:21.873Z,96565.00
2022-12-04T08:27:23.764Z,96566.59
2022-12-04T08:28:25.582Z,96558.41
2022-12-04T08:29:28.988Z,96558.06
2022-12-04T08:30:31.029Z,96567.22
2022-12-04T08:31:34.024Z,96556.63
2022-12-04T08:32:35.973Z,96562.44
2022-12-04T08:33:37.932Z,96559.84
2022-12-04T08:34:40.041Z,96565.16
2022-12-04T08:35:41.982Z,96559.84
2022-12-04T08:36:43.865Z,96560.66
2022-12-04T08:37:45.720Z,96561.28
2022-12-04T08:38:48.776Z,96561.78
2022-12-04T08:39:50.703Z,96561.13
2022-12-04T08:40:52.635Z,96556.00
2022-12-04T08:41:57.180Z,96565.31
2022-12-04T08:42:59.477Z,96571.59
2022-12-04T08:44:01.421Z,96574.03
2022-12-04T08:45:03.723Z,96566.44
2022-12-04T08:46:07.160Z,96562.09
2022-12-04T08:47:09.256Z,96562.72
2022-12-04T08:48:11.283Z,96560.16
2022-12-04T08:49:13.241Z,96560.16
2022-12-04T08:50:15.590Z,96561.78
2022-12-04T08:51:18.554Z,96564.22
2022-12-04T08:52:20.390Z,96571.44
2022-12-04T08:53:22.519Z,96563.72
2022-12-04T08:54:24.449Z,96566.13
2022-12-04T08:55:26.368Z,96563.41
2022-12-04T08:56:29.716Z,96564.06
2022-12-04T08:57:31.858Z,96561.47
2022-12-04T08:58:33.926Z,96560.34
2022-12-04T08:59:35.902Z,96554.41
2022-12-04T09:00:38.570Z,96554.84
2022-12-04T09:01:40.857Z,96559.84
2022-12-04T09:02:43.318Z,96545.03
2022-12-04T09:03:46.086Z,96546.81
2022-12-04T09:04:48.614Z,96557.44
2022-12-04T09:05:51.082Z,96554.41
2022-12-04T09:06:53.425Z,96546.66
2022-12-04T09:07:56.107Z,96544.09
2022-12-04T09:08:58.824Z,96548.91
2022-12-04T09:10:01.413Z,96549.38
2022-12-04T09:11:19.339Z,96547.31
2022-12-04T09:12:21.546Z,96546.31
2022-12-04T09:13:23.763Z,96547.94
2022-12-04T09:14:27.265Z,96555.81
2022-12-04T09:15:30.357Z,96556.63
2022-12-04T09:16:34.862Z,96552.94
2022-12-04T09:17:37.719Z,96560.34
2022-12-04T09:18:40.855Z,96560.97
2022-12-04T09:19:42.983Z,96555.81
2022-12-04T09:20:45.482Z,96541.00
2022-12-04T09:21:48.404Z,96537.91
2022-12-04T09:23:03.793Z,96552.28
2022-12-04T09:24:06.918Z,96537.25
2022-12-04T09:25:09.707Z,96547.56
2022-12-04T09:26:23.405Z,96546.94
2022-12-04T09:27:25.546Z,96550.00
2022-12-04T09:28:31.023Z,96545.31
2022-12-04T09:29:33.200Z,96542.41
2022-12-04T09:30:35.356Z,96540.66
2022-12-04T09:31:41.587Z,96538.72
2022-12-04T09:32:45.189Z,96541.59
2022-12-04T09:33:48.363Z,96549.00
2022-12-04T09:34:52.784Z,96550.78
2022-12-04T09:35:55.476Z,96537.06
2022-12-04T09:36:57.915Z,96536.59
2022-12-04T09:38:00.636Z,96541.41
2022-12-04T09:39:03.289Z,96546.88
2022-12-04T09:40:06.674Z,96530.28
2022-12-04T09:41:09.408Z,96510.13
2022-12-04T09:42:21.017Z,96525.06
2022-12-04T09:43:31.956Z,96508.47
2022-12-04T09:44:41.597Z,96512.94
2022-12-04T09:45:49.611Z,96520.00
2022-12-04T09:46:59.068Z,96522.91
2022-12-04T09:48:02.275Z,96507.06
2022-12-04T09:49:11.448Z,96521.59
2022-12-04T09:50:19.821Z,96510.91
2022-12-04T09:51:25.485Z,96518.50
2022-12-04T09:52:32.735Z,96518.34
2022-12-04T09:54:01.213Z,96510.25
2022-12-04T09:55:05.814Z,96516.50
2022-12-04T09:56:11.433Z,96510.88
2022-12-04T09:57:21.746Z,96510.50
2022-12-04T09:58:29.223Z,96485.97
2022-12-04T09:59:32.717Z,96495.97
2022-12-04T10:00:37.816Z,96502.38
2022-12-04T10:01:49.206Z,96492.69
2022-12-04T10:03:06.086Z,96493.31
2022-12-04T10:04:10.883Z,96510.06
2022-12-04T10:05:33.775Z,96504.56
2022-12-04T10:06:48.403Z,96493.53
2022-12-04T10:08:03.403Z,96483.50
2022-12-04T10:09:23.353Z,96479.44
2022-12-04T10:10:25.956Z,96477.13
2022-12-04T10:11:37.744Z,96482.75
2022-12-04T10:12:41.527Z,96476.41
2022-12-04T10:13:50.363Z,96485.25
2022-12-04T10:15:13.009Z,96479.41
2022-12-04T10:16:39.136Z,96476.72
2022-12-04T10:17:57.060Z,96466.50
2022-12-04T10:19:26.032Z,96455.44
2022-12-04T10:20:31.413Z,96467.50
2022-12-04T10:21:40.031Z,96460.81
2022-12-04T10:22:52.234Z,96460.09
2022-12-04T10:24:12.328Z,96458.59
2022-12-04T10:25:18.420Z,96452.72
2022-12-04T10:26:22.819Z,96452.97
2022-12-04T10:27:40.377Z,96450.00
2022-12-04T10:28:48.310Z,96452.84
2022-12-04T10:30:01.033Z,96440.50
2022-12-04T10:31:04.709Z,96433.03
2022-12-04T10:32:18.915Z,96428.09
2022-12-04T10:33:41.340Z,96442.72
2022-12-04T10:34:46.007Z,96435.63
2022-12-04T10:35:52.424Z,96441.88
2022-12-04T10:36:56.052Z,96422.66
2022-12-04T10:38:04.777Z,96429.88
2022-12-04T10:39:14.144Z,96444.69
2022-12-04T10:40:21.507Z,96428.56
2022-12-04T10:41:33.417Z,96435.00
2022-12-04T10:42:35.594Z,96426.50
2022-12-04T10:43:48.132Z,96428.69
2022-12-04T10:44:50.477Z,96439.94
2022-12-04T10:45:52.895Z,96447.34
2022-12-04T10:47:01.060Z,96402.97
2022-12-04T10:48:03.226Z,96413.56
2022-12-04T10:49:07.265Z,96410.03
2022-12-04T10:50:17.591Z,96409.72
2022-12-04T10:51:21.734Z,96421.78
2022-12-04T10:52:23.607Z,96421.03
2022-12-04T10:53:30.351Z,96421.03
2022-12-04T10:54:34.348Z,96417.03
2022-12-04T10:55:38.558Z,96417.81
2022-12-04T10:56:51.165Z,96415.16
2022-12-04T10:57:53.695Z,96414.56
2022-12-04T10:59:00.420Z,96395.69
2022-12-04T11:00:02.335Z,96447.72
2022-12-04T11:01:06.167Z,96435.53
2022-12-04T11:02:21.271Z,96407.44
2022-12-04T11:03:25.142Z,96414.56
2022-12-04T11:04:28.429Z,96414.44
2022-12-04T11:05:30.234Z,96435.63
2022-12-04T11:06:32.658Z,96408.69
2022-12-04T11:07:43.615Z,96419.97
2022-12-04T11:08:49.909Z,96416.66
2022-12-04T11:10:01.855Z,96422.16
2022-12-04T11:11:06.617Z,96413.44
2022-12-04T11:12:16.593Z,96400.69
2022-12-04T11:13:18.992Z,96396.47
2022-12-04T11:14:22.449Z,96408.94
2022-12-04T11:15:24.854Z,96398.50
2022-12-04T11:16:36.347Z,96410.78
2022-12-04T11:17:38.998Z,96414.91
2022-12-04T11:18:48.486Z,96388.22
2022-12-04T11:19:59.278Z,96407.38
2022-12-04T11:21:24.917Z,96405.19
2022-12-04T11:22:28.814Z,96395.06
2022-12-04T11:23:34.087Z,96393.44
2022-12-04T11:24:37.603Z,96406.78
2022-12-04T11:25:45.494Z,96403.44
2022-12-04T11:26:48.130Z,96413.03
2022-12-04T11:27:52.646Z,96395.44
2022-12-04T11:28:55.681Z,96393.88
2022-12-04T11:29:59.068Z,96402.72
2022-12-04T11:31:03.657Z,96398.28
2022-12-04T11:32:08.329Z,96387.19
2022-12-04T11:33:20.895Z,96392.41
2022-12-04T11:34:25.385Z,96398.53
2022-12-04T11:35:30.044Z,96374.50
2022-12-04T11:36:37.770Z,96393.06
2022-12-04T11:37:45.185Z,96386.28
2022-12-04T11:38:48.417Z,96395.56
2022-12-04T11:39:51.522Z,96395.44
2022-12-04T11:40:55.842Z,96397.81
2022-12-04T11:42:06.476Z,96373.41
2022-12-04T11:43:12.355Z,96394.81
2022-12-04T11:44:27.856Z,96373.09
2022-12-04T11:45:29.934Z,96376.97
2022-12-04T11:46:34.479Z,96388.56
2022-12-04T11:47:37.149Z,96376.28
2022-12-04T11:48:44.738Z,96377.09
2022-12-04T11:50:00.739Z,96382.25
2022-12-04T11:51:09.541Z,96383.94
2022-12-04T11:52:22.214Z,96381.09
2022-12-04T11:53:27.671Z,96367.56
2022-12-04T11:54:39.526Z,96374.28
2022-12-04T11:56:03.892Z,96379.41
2022-12-04T11:57:06.598Z,96378.47
2022-12-04T11:58:09.331Z,96388.25
2022-12-04T11:59:18.411Z,96389.19
2022-12-04T12:00:22.360Z,96377.59
2022-12-04T12:01:30.970Z,96386.06
2022-12-04T12:02:39.942Z,96399.06
2022-12-04T12:03:50.558Z,96406.25
2022-12-04T12:04:52.477Z,96400.22
2022-12-04T12:06:14.297Z,96388.84
2022-12-04T12:07:24.853Z,96381.13
2022-12-04T12:08:46.002Z,96397.50
2022-12-04T12:09:52.443Z,96410.94
2022-12-04T12:11:11.132Z,96401.41
2022-12-04T12:12:15.985Z,96386.38
2022-12-04T12:13:27.155Z,96373.50
2022-12-04T12:14:50.009Z,96395.03
2022-12-04T12:15:55.776Z,96396.63
2022-12-04T12:17:16.336Z,96414.13
2022-12-04T12:18:20.896Z,96392.06
2022-12-04T12:19:36.499Z,96400.13
2022-12-04T12:20:55.988Z,96379.53
2022-12-04T12:22:06.967Z,96392.50
2022-12-04T12:23:16.702Z,96377.78
2022-12-04T12:24:24.760Z,96373.66
2022-12-04T12:25:38.897Z,96375.69
2022-12-04T12:26:46.763Z,96399.06
2022-12-04T12:27:50.851Z,96392.09
2022-12-04T12:29:12.363Z,96382.06
2022-12-04T12:30:20.623Z,96379.78
2022-12-04T12:31:25.508Z,96367.94
2022-12-04T12:32:41.929Z,96386.72
2022-12-04T12:33:48.434Z,96377.75
2022-12-04T12:34:51.381Z,96371.94
2022-12-04T12:35:53.484Z,96365.69
2022-12-04T12:37:00.936Z,96366.25
2022-12-04T12:38:07.194Z,96356.22
2022-12-04T12:39:24.825Z,96367.25
2022-12-04T12:40:36.422Z,96351.91
2022-12-04T12:42:04.667Z,96368.75
2022-12-04T12:43:12.213Z,96374.84
2022-12-04T12:44:26.758Z,96360.34
2022-12-04T12:45:51.177Z,96364.00
2022-12-04T12:47:04.722Z,96353.50
2022-12-04T12:48:33.649Z,96356.69
2022-12-04T12:49:41.534Z,96352.47
2022-12-04T12:52:32.512Z,96360.25
2022-12-04T12:53:37.870Z,96361.03
2022-12-04T12:54:40.599Z,96347.94
2022-12-04T12:55:53.315Z,96345.47
2022-12-04T12:56:58.240Z,96351.97